| time (UTC) | temp C | wind direction | speed KPH | gust KPH | rain 1hr cm | rain 24hr cm | rain mn cm | humidity % | barometer mb |
| 20260507095306 | 12 | 345 | 1.6 | 4.8 | 0.00 | 0.00 | 0.00 | 74 | 1020.5 |
| 20260507094305 | 12 | 335 | 3.2 | 9.7 | 0.00 | 0.00 | 0.00 | 74 | 1020.6 |
| 20260507093306 | 12 | 307 | 1.6 | 8.0 | 0.00 | 0.00 | 0.00 | 74 | 1020.7 |
| 20260507092805 | 12 | 329 | 3.2 | 8.0 | 0.00 | 0.00 | 0.00 | 74 | 1020.7 |
| 20260507092307 | 12 | 288 | 4.8 | 9.7 | 0.00 | 0.00 | 0.00 | 74 | 1020.8 |
| 20260507091805 | 12 | 310 | 1.6 | 4.8 | 0.00 | 0.00 | 0.00 | 75 | 1020.9 |
| 20260507091305 | 12 | 302 | 3.2 | 11.3 | 0.00 | 0.00 | 0.00 | 75 | 1020.9 |
| 20260507090805 | 12 | 294 | 4.8 | 9.7 | 0.00 | 0.00 | 0.00 | 75 | 1020.9 |
| 20260507090306 | 12 | 280 | 4.8 | 9.7 | 0.00 | 0.00 | 0.00 | 75 | 1020.9 |
| 20260507085805 | 12 | 316 | 8.0 | 12.9 | 0.00 | 0.00 | 0.00 | 75 | 1021.0 |
| 20260507085306 | 12 | 291 | 4.8 | 11.3 | 0.00 | 0.00 | 0.00 | 76 | 1021.0 |
| 20260507084805 | 12 | 9 | 1.6 | 8.0 | 0.00 | 0.00 | 0.00 | 77 | 1020.9 |
| 20260507084305 | 12 | 296 | 3.2 | 4.8 | 0.00 | 0.00 | 0.00 | 77 | 1020.8 |
| 20260507083805 | 12 | 355 | 3.2 | 4.8 | 0.00 | 0.00 | 0.00 | 78 | 1020.8 |
| 20260507082805 | 12 | 344 | 1.6 | 3.2 | 0.00 | 0.00 | 0.00 | 79 | 1020.9 |
| 20260507081305 | 12 | 5 | 4.8 | 8.0 | 0.00 | 0.00 | 0.00 | 79 | 1020.7 |
| 20260507080305 | 12 | 5 | 4.8 | 8.0 | 0.00 | 0.00 | 0.00 | 79 | 1020.8 |
| 20260507075805 | 12 | 10 | 3.2 | 8.0 | 0.00 | 0.00 | 0.00 | 79 | 1020.9 |
| 20260507075307 | 12 | 7 | 4.8 | 8.0 | 0.00 | 0.00 | 0.00 | 79 | 1020.8 |
| 20260507074805 | 12 | 3 | 3.2 | 4.8 | 0.00 | 0.00 | 0.00 | 79 | 1020.8 |
| 20260507073804 | 12 | 11 | 3.2 | 4.8 | 0.00 | 0.00 | 0.00 | 79 | 1020.9 |
| 20260507073305 | 12 | 9 | 3.2 | 4.8 | 0.00 | 0.00 | 0.00 | 79 | 1020.9 |
| 20260507072805 | 12 | 5 | 1.6 | 4.8 | 0.00 | 0.00 | 0.00 | 79 | 1020.8 |
| 20260507072307 | 13 | 358 | 3.2 | 8.0 | 0.00 | 0.00 | 0.00 | 79 | 1020.7 |
| 20260507071805 | 13 | 3 | 3.2 | 4.8 | 0.00 | 0.00 | 0.00 | 79 | 1020.7 |
| 20260507071305 | 13 | 324 | 3.2 | 8.0 | 0.00 | 0.00 | 0.00 | 79 | 1020.6 |
| 20260507070818 | 13 | 67 | 1.6 | 4.8 | 0.00 | 0.00 | 0.00 | 79 | 1020.7 |
| 20260507070305 | 13 | 15 | 3.2 | 4.8 | 0.00 | 0.00 | 0.00 | 79 | 1020.6 |
| 20260507065805 | 13 | 17 | 4.8 | 8.0 | 0.00 | 0.00 | 0.00 | 79 | 1020.7 |
| 20260507065306 | 13 | 4 | 4.8 | 4.8 | 0.00 | 0.00 | 0.00 | 79 | 1020.7 |
| 20260507064805 | 13 | 5 | 1.6 | 4.8 | 0.00 | 0.00 | 0.00 | 79 | 1020.7 |
| 20260507063805 | 13 | 295 | 3.2 | 4.8 | 0.00 | 0.00 | 0.00 | 79 | 1020.7 |
| 20260507063305 | 13 | 354 | 3.2 | 4.8 | 0.00 | 0.00 | 0.00 | 80 | 1020.7 |
| 20260507062804 | 13 | 7 | 3.2 | 4.8 | 0.00 | 0.00 | 0.00 | 79 | 1020.6 |
| 20260507062306 | 13 | 337 | 3.2 | 4.8 | 0.00 | 0.00 | 0.00 | 79 | 1020.7 |
| 20260507061805 | 13 | 5 | 4.8 | 9.7 | 0.00 | 0.00 | 0.00 | 79 | 1020.6 |
| 20260507061304 | 13 | 35 | 4.8 | 12.9 | 0.00 | 0.00 | 0.00 | 79 | 1020.7 |
| 20260507060805 | 13 | 3 | 4.8 | 9.7 | 0.00 | 0.00 | 0.00 | 79 | 1020.6 |
| 20260507060304 | 13 | 38 | 3.2 | 8.0 | 0.00 | 0.00 | 0.00 | 79 | 1020.7 |
| 20260507055805 | 13 | 5 | 3.2 | 12.9 | 0.00 | 0.00 | 0.00 | 79 | 1020.7 |
| 20260507054805 | 13 | 47 | 4.8 | 12.9 | 0.00 | 0.00 | 0.00 | 78 | 1020.6 |
| 20260507054304 | 13 | 8 | 4.8 | 9.7 | 0.00 | 0.00 | 0.00 | 78 | 1020.6 |
| 20260507053805 | 13 | 350 | 4.8 | 9.7 | 0.00 | 0.00 | 0.00 | 78 | 1020.6 |
| 20260507053304 | 13 | 356 | 4.8 | 8.0 | 0.00 | 0.00 | 0.00 | 78 | 1020.6 |
| 20260507052805 | 13 | 355 | 4.8 | 9.7 | 0.00 | 0.00 | 0.00 | 78 | 1020.5 |
| 20260507052306 | 13 | 45 | 4.8 | 8.0 | 0.00 | 0.00 | 0.00 | 78 | 1020.5 |
| 20260507051804 | 13 | 8 | 3.2 | 8.0 | 0.00 | 0.00 | 0.00 | 78 | 1020.5 |
| 20260507051305 | 13 | 349 | 8.0 | 12.9 | 0.00 | 0.00 | 0.00 | 78 | 1020.5 |
| 20260507050805 | 13 | 344 | 4.8 | 12.9 | 0.00 | 0.00 | 0.00 | 77 | 1020.6 |
| 20260507045805 | 14 | 343 | 4.8 | 11.3 | 0.00 | 0.00 | 0.00 | 77 | 1020.6 |
| 20260507045306 | 14 | 51 | 6.4 | 12.9 | 0.00 | 0.00 | 0.00 | 77 | 1020.6 |
| 20260507044804 | 14 | 18 | 6.4 | 14.5 | 0.00 | 0.00 | 0.00 | 77 | 1020.6 |
| 20260507044305 | 14 | 359 | 6.4 | 12.9 | 0.00 | 0.00 | 0.00 | 77 | 1020.6 |
| 20260507043805 | 14 | 350 | 8.0 | 14.5 | 0.00 | 0.00 | 0.00 | 77 | 1020.5 |
| 20260507043304 | 14 | 351 | 4.8 | 9.7 | 0.00 | 0.00 | 0.00 | 77 | 1020.4 |
| 20260507042805 | 14 | 7 | 11.3 | 19.3 | 0.00 | 0.00 | 0.00 | 76 | 1020.4 |
| 20260507042307 | 15 | 13 | 3.2 | 14.5 | 0.00 | 0.00 | 0.00 | 76 | 1020.4 |
| 20260507041805 | 15 | 17 | 4.8 | 11.3 | 0.00 | 0.00 | 0.00 | 76 | 1020.3 |
| 20260507041305 | 15 | 9 | 6.4 | 11.3 | 0.00 | 0.00 | 0.00 | 76 | 1020.3 |
| 20260507040805 | 15 | 326 | 3.2 | 12.9 | 0.00 | 0.00 | 0.00 | 76 | 1020.2 |
| 20260507040304 | 15 | 28 | 4.8 | 16.1 | 0.00 | 0.00 | 0.00 | 76 | 1020.1 |
| 20260507034805 | 15 | 350 | 4.8 | 16.1 | 0.00 | 0.00 | 0.00 | 76 | 1019.9 |
| 20260507034304 | 15 | 326 | 4.8 | 12.9 | 0.00 | 0.00 | 0.00 | 76 | 1019.8 |
| 20260507033804 | 15 | 11 | 6.4 | 16.1 | 0.00 | 0.00 | 0.00 | 76 | 1019.6 |
| 20260507033305 | 15 | 6 | 8.0 | 12.9 | 0.00 | 0.00 | 0.00 | 75 | 1019.5 |
| 20260507032807 | 16 | 346 | 4.8 | 16.1 | 0.00 | 0.00 | 0.00 | 76 | 1019.5 |
| 20260507032308 | 16 | 12 | 3.2 | 11.3 | 0.00 | 0.00 | 0.00 | 76 | 1019.5 |
| 20260507031807 | 16 | 41 | 3.2 | 4.8 | 0.00 | 0.00 | 0.00 | 76 | 1019.3 |
| 20260507030808 | 16 | 46 | 1.6 | 4.8 | 0.00 | 0.00 | 0.00 | 75 | 1019.2 |
| 20260507030307 | 16 | 93 | 1.6 | 4.8 | 0.00 | 0.00 | 0.00 | 75 | 1019.3 |
| 20260507025807 | 16 | 69 | 3.2 | 4.8 | 0.00 | 0.00 | 0.00 | 75 | 1019.3 |
| 20260507025307 | 16 | 47 | 3.2 | 4.8 | 0.00 | 0.00 | 0.00 | 74 | 1019.2 |
| 20260507024807 | 16 | 38 | 3.2 | 9.7 | 0.00 | 0.00 | 0.00 | 74 | 1019.1 |
| 20260507024307 | 16 | 29 | 4.8 | 9.7 | 0.00 | 0.00 | 0.00 | 73 | 1019.0 |
| 20260507023808 | 16 | 24 | 4.8 | 8.0 | 0.00 | 0.00 | 0.00 | 73 | 1019.0 |
| 20260507022807 | 17 | 19 | 1.6 | 8.0 | 0.00 | 0.00 | 0.00 | 72 | 1018.9 |
| 20260507022307 | 17 | 353 | 4.8 | 9.7 | 0.00 | 0.00 | 0.00 | 71 | 1018.9 |
| 20260507021807 | 17 | 350 | 3.2 | 8.0 | 0.00 | 0.00 | 0.00 | 71 | 1018.9 |
| 20260507021308 | 17 | 357 | 3.2 | 8.0 | 0.00 | 0.00 | 0.00 | 71 | 1018.9 |
| 20260507020807 | 17 | 8 | 3.2 | 11.3 | 0.00 | 0.00 | 0.00 | 70 | 1018.8 |
| 20260507020307 | 17 | 18 | 4.8 | 9.7 | 0.00 | 0.00 | 0.00 | 70 | 1018.8 |
| 20260507015307 | 18 | 336 | 8.0 | 19.3 | 0.00 | 0.00 | 0.00 | 70 | 1019.0 |
| 20260507014807 | 18 | 1 | 9.7 | 19.3 | 0.00 | 0.00 | 0.00 | 69 | 1019.0 |
| 20260507014307 | 18 | 1 | 8.0 | 12.9 | 0.00 | 0.00 | 0.00 | 68 | 1019.0 |
| 20260507013807 | 18 | 3 | 3.2 | 14.5 | 0.00 | 0.00 | 0.00 | 69 | 1019.0 |
| 20260507013306 | 18 | 0 | 4.8 | 12.9 | 0.00 | 0.00 | 0.00 | 69 | 1018.8 |
| 20260507012807 | 18 | 344 | 8.0 | 14.5 | 0.00 | 0.00 | 0.00 | 69 | 1018.9 |
| 20260507012307 | 19 | 65 | 6.4 | 14.5 | 0.00 | 0.00 | 0.00 | 69 | 1018.9 |
| 20260507011807 | 19 | 10 | 3.2 | 11.3 | 0.00 | 0.00 | 0.00 | 69 | 1018.8 |
| 20260507010807 | 19 | 20 | 3.2 | 12.9 | 0.00 | 0.00 | 0.00 | 69 | 1018.8 |
| 20260507010308 | 19 | 62 | 6.4 | 12.9 | 0.00 | 0.00 | 0.00 | 69 | 1018.8 |
| 20260507005807 | 20 | 29 | 6.4 | 14.5 | 0.00 | 0.00 | 0.00 | 68 | 1018.8 |
| 20260507005307 | 20 | 66 | 8.0 | 14.5 | 0.00 | 0.00 | 0.00 | 67 | 1018.7 |
| 20260507004807 | 20 | 34 | 4.8 | 11.3 | 0.00 | 0.00 | 0.00 | 66 | 1018.6 |
| 20260507004307 | 20 | 20 | 4.8 | 9.7 | 0.00 | 0.00 | 0.00 | 66 | 1018.7 |
| 20260507003807 | 21 | 358 | 4.8 | 8.0 | 0.00 | 0.00 | 0.00 | 64 | 1018.6 |
| 20260507003307 | 21 | 68 | 1.6 | 4.8 | 0.00 | 0.00 | 0.00 | 64 | 1018.6 |
| 20260507002807 | 21 | 134 | 3.2 | 4.8 | 0.00 | 0.00 | 0.00 | 64 | 1018.5 |
| 20260507002306 | 21 | 207 | 1.6 | 11.3 | 0.00 | 0.00 | 0.00 | 64 | 1018.6 |
| 20260507001807 | 21 | 277 | 4.8 | 12.9 | 0.00 | 0.00 | 0.00 | 63 | 1018.6 |
| 20260507001307 | 21 | 201 | 4.8 | 11.3 | 0.00 | 0.00 | 0.00 | 64 | 1018.6 |
| 20260507000806 | 21 | 177 | 1.6 | 11.3 | 0.00 | 0.00 | 0.00 | 65 | 1018.6 |
| 20260507000307 | 20 | 128 | 6.4 | 11.3 | 0.00 | 0.00 | 0.00 | 65 | 1018.6 |
| 20260506235807 | 21 | 142 | 3.2 | 11.3 | 0.00 | 0.00 | 0.00 | 64 | 1018.6 |
| 20260506235307 | 21 | 216 | 4.8 | 11.3 | 0.00 | 0.00 | 0.00 | 65 | 1018.5 |
| 20260506234807 | 21 | 250 | 1.6 | 3.2 | 0.00 | 0.00 | 0.00 | 65 | 1018.5 |
| 20260506234307 | 21 | 132 | 3.2 | 9.7 | 0.00 | 0.00 | 0.00 | 66 | 1018.5 |
| 20260506233807 | 20 | 37 | 6.4 | 11.3 | 0.00 | 0.00 | 0.00 | 66 | 1018.4 |
| 20260506232807 | 20 | 138 | 6.4 | 14.5 | 0.00 | 0.00 | 0.00 | 67 | 1018.6 |
| 20260506232307 | 20 | 104 | 3.2 | 11.3 | 0.00 | 0.00 | 0.00 | 67 | 1018.6 |
| 20260506231806 | 20 | 135 | 11.3 | 19.3 | 0.00 | 0.00 | 0.00 | 66 | 1018.7 |
| 20260506231307 | 20 | 177 | 4.8 | 9.7 | 0.00 | 0.00 | 0.00 | 67 | 1018.7 |
| 20260506230807 | 20 | 193 | 3.2 | 12.9 | 0.00 | 0.00 | 0.00 | 67 | 1018.8 |
| 20260506230307 | 20 | 149 | 6.4 | 11.3 | 0.00 | 0.00 | 0.00 | 67 | 1018.9 |
| 20260506225806 | 20 | 198 | 8.0 | 12.9 | 0.00 | 0.00 | 0.00 | 67 | 1019.0 |
| 20260506225306 | 20 | 119 | 6.4 | 14.5 | 0.00 | 0.00 | 0.00 | 68 | 1019.0 |
| 20260506224807 | 20 | 202 | 8.0 | 14.5 | 0.00 | 0.00 | 0.00 | 68 | 1019.0 |
| 20260506224307 | 20 | 237 | 6.4 | 19.3 | 0.00 | 0.00 | 0.00 | 68 | 1019.0 |
| 20260506223806 | 20 | 111 | 1.6 | 4.8 | 0.00 | 0.00 | 0.00 | 70 | 1019.1 |
| 20260506223307 | 19 | 141 | 3.2 | 9.7 | 0.00 | 0.00 | 0.00 | 71 | 1019.2 |
| 20260506222807 | 19 | 207 | 4.8 | 9.7 | 0.00 | 0.00 | 0.00 | 69 | 1019.1 |
| 20260506222307 | 19 | 133 | 3.2 | 4.8 | 0.00 | 0.00 | 0.00 | 70 | 1019.2 |
| 20260506221807 | 19 | 236 | 3.2 | 4.8 | 0.00 | 0.00 | 0.00 | 69 | 1019.3 |
| 20260506221307 | 18 | 148 | 4.8 | 8.0 | 0.00 | 0.00 | 0.00 | 69 | 1019.4 |
| 20260506220807 | 18 | 194 | 3.2 | 9.7 | 0.00 | 0.00 | 0.00 | 69 | 1019.4 |
| 20260506220307 | 18 | 269 | 3.2 | 4.8 | 0.00 | 0.00 | 0.00 | 69 | 1019.5 |
| 20260506215807 | 19 | 134 | 4.8 | 12.9 | 0.00 | 0.00 | 0.00 | 68 | 1019.5 |
| 20260506215307 | 19 | 207 | 4.8 | 9.7 | 0.00 | 0.00 | 0.00 | 67 | 1019.4 |
| 20260506214806 | 20 | 203 | 4.8 | 12.9 | 0.00 | 0.00 | 0.00 | 67 | 1019.3 |
| 20260506214306 | 20 | 224 | 4.8 | 12.9 | 0.00 | 0.00 | 0.00 | 68 | 1019.3 |
| 20260506213807 | 19 | 216 | 3.2 | 11.3 | 0.00 | 0.00 | 0.00 | 68 | 1019.4 |
| 20260506213307 | 18 | 287 | 4.8 | 12.9 | 0.00 | 0.00 | 0.00 | 69 | 1019.5 |
| 20260506212807 | 18 | 167 | 4.8 | 22.5 | 0.00 | 0.00 | 0.00 | 70 | 1019.6 |
| 20260506211307 | 18 | 150 | 4.8 | 12.9 | 0.00 | 0.00 | 0.00 | 71 | 1019.8 |
| 20260506210307 | 18 | 126 | 6.4 | 14.5 | 0.00 | 0.00 | 0.00 | 70 | 1019.9 |
| 20260506205807 | 18 | 199 | 3.2 | 4.8 | 0.00 | 0.00 | 0.00 | 71 | 1019.9 |
| 20260506204807 | 18 | 137 | 8.0 | 14.5 | 0.00 | 0.00 | 0.00 | 71 | 1019.9 |
| 20260506204307 | 18 | 184 | 8.0 | 19.3 | 0.00 | 0.00 | 0.00 | 70 | 1019.9 |
| 20260506203806 | 18 | 142 | 11.3 | 19.3 | 0.00 | 0.00 | 0.00 | 71 | 1019.8 |
| 20260506202807 | 18 | 233 | 8.0 | 16.1 | 0.00 | 0.00 | 0.00 | 71 | 1019.8 |
| 20260506202306 | 18 | 185 | 6.4 | 14.5 | 0.00 | 0.00 | 0.00 | 72 | 1019.8 |
| 20260506201806 | 18 | 199 | 4.8 | 14.5 | 0.00 | 0.00 | 0.00 | 72 | 1019.8 |
| 20260506201306 | 18 | 175 | 3.2 | 14.5 | 0.00 | 0.00 | 0.00 | 74 | 1019.8 |
| 20260506200806 | 18 | 173 | 4.8 | 14.5 | 0.00 | 0.00 | 0.00 | 74 | 1019.9 |
| 20260506195807 | 17 | 211 | 4.8 | 8.0 | 0.00 | 0.00 | 0.00 | 75 | 1020.1 |
| 20260506195307 | 17 | 249 | 4.8 | 12.9 | 0.00 | 0.00 | 0.00 | 75 | 1020.2 |
| 20260506194807 | 17 | 152 | 6.4 | 11.3 | 0.00 | 0.00 | 0.00 | 76 | 1020.2 |
| 20260506194307 | 17 | 146 | 11.3 | 14.5 | 0.00 | 0.00 | 0.00 | 75 | 1020.3 |
| 20260506193807 | 17 | 139 | 4.8 | 12.9 | 0.00 | 0.00 | 0.00 | 75 | 1020.2 |
| 20260506193306 | 17 | 196 | 3.2 | 12.9 | 0.00 | 0.00 | 0.00 | 76 | 1020.3 |
| 20260506192806 | 16 | 147 | 4.8 | 9.7 | 0.00 | 0.00 | 0.00 | 77 | 1020.3 |
| 20260506191806 | 16 | 169 | 4.8 | 11.3 | 0.00 | 0.00 | 0.00 | 77 | 1020.3 |
| 20260506191307 | 16 | 132 | 11.3 | 16.1 | 0.00 | 0.00 | 0.00 | 77 | 1020.1 |
| 20260506190806 | 16 | 120 | 9.7 | 19.3 | 0.00 | 0.00 | 0.00 | 77 | 1020.2 |
| 20260506190307 | 16 | 158 | 4.8 | 12.9 | 0.00 | 0.00 | 0.00 | 76 | 1020.3 |
| 20260506185806 | 16 | 182 | 8.0 | 16.1 | 0.00 | 0.00 | 0.00 | 77 | 1020.3 |
| 20260506185307 | 16 | 189 | 4.8 | 12.9 | 0.00 | 0.00 | 0.00 | 78 | 1020.1 |
| 20260506184807 | 16 | 154 | 8.0 | 14.5 | 0.00 | 0.00 | 0.00 | 78 | 1020.1 |
| 20260506184306 | 16 | 185 | 8.0 | 12.9 | 0.00 | 0.00 | 0.00 | 79 | 1020.1 |
| 20260506183806 | 16 | 199 | 9.7 | 14.5 | 0.00 | 0.00 | 0.00 | 79 | 1020.1 |
| 20260506183306 | 16 | 132 | 4.8 | 14.5 | 0.00 | 0.00 | 0.00 | 80 | 1020.2 |
| 20260506182806 | 15 | 135 | 4.8 | 14.5 | 0.00 | 0.00 | 0.00 | 80 | 1020.1 |
| 20260506182307 | 16 | 161 | 6.4 | 14.5 | 0.00 | 0.00 | 0.00 | 79 | 1020.2 |
| 20260506180806 | 15 | 236 | 4.8 | 12.9 | 0.00 | 0.00 | 0.00 | 80 | 1020.3 |
| 20260506180306 | 15 | 188 | 3.2 | 12.9 | 0.00 | 0.00 | 0.00 | 80 | 1020.2 |
| 20260506175806 | 15 | 220 | 1.6 | 4.8 | 0.00 | 0.00 | 0.00 | 80 | 1020.4 |
| 20260506175306 | 15 | 243 | 3.2 | 11.3 | 0.00 | 0.00 | 0.00 | 80 | 1020.2 |
| 20260506174306 | 15 | 227 | 4.8 | 8.0 | 0.00 | 0.00 | 0.00 | 79 | 1020.2 |
| 20260506173307 | 15 | 140 | 4.8 | 9.7 | 0.00 | 0.00 | 0.00 | 80 | 1020.0 |
| 20260506172307 | 15 | 155 | 4.8 | 8.0 | 0.00 | 0.00 | 0.00 | 81 | 1019.8 |
| 20260506171806 | 15 | 142 | 4.8 | 8.0 | 0.00 | 0.00 | 0.00 | 82 | 1019.9 |
| 20260506171306 | 14 | 191 | 4.8 | 8.0 | 0.00 | 0.00 | 0.00 | 82 | 1020.0 |
| 20260506170806 | 14 | 193 | 3.2 | 8.0 | 0.00 | 0.00 | 0.00 | 82 | 1020.0 |
| 20260506170306 | 14 | 179 | 4.8 | 11.3 | 0.00 | 0.00 | 0.00 | 83 | 1020.0 |
| 20260506165806 | 14 | 190 | 3.2 | 4.8 | 0.00 | 0.00 | 0.00 | 83 | 1020.1 |
| 20260506164806 | 14 | 198 | 3.2 | 8.0 | 0.00 | 0.00 | 0.00 | 83 | 1019.9 |
| 20260506164306 | 14 | 203 | 4.8 | 9.7 | 0.00 | 0.00 | 0.00 | 83 | 1019.9 |
| 20260506163807 | 14 | 195 | 3.2 | 4.8 | 0.00 | 0.00 | 0.00 | 83 | 1019.9 |
| 20260506163306 | 14 | 198 | 3.2 | 9.7 | 0.00 | 0.00 | 0.00 | 83 | 1019.9 |
| 20260506162806 | 14 | 200 | 1.6 | 8.0 | 0.00 | 0.00 | 0.00 | 84 | 1019.9 |
| 20260506162307 | 14 | 209 | 1.6 | 9.7 | 0.00 | 0.00 | 0.00 | 83 | 1019.8 |
| 20260506161806 | 14 | 175 | 4.8 | 8.0 | 0.00 | 0.00 | 0.00 | 83 | 1019.8 |
| 20260506161306 | 14 | 168 | 4.8 | 11.3 | 0.00 | 0.00 | 0.00 | 84 | 1019.7 |
| 20260506160806 | 14 | 203 | 4.8 | 9.7 | 0.00 | 0.00 | 0.00 | 84 | 1019.7 |
| 20260506160306 | 13 | 200 | 3.2 | 8.0 | 0.00 | 0.00 | 0.00 | 85 | 1019.7 |
| 20260506155806 | 13 | 138 | 6.4 | 14.5 | 0.00 | 0.00 | 0.00 | 85 | 1019.5 |
| 20260506154806 | 13 | 189 | 4.8 | 16.1 | 0.00 | 0.00 | 0.00 | 85 | 1019.2 |
| 20260506154305 | 13 | 145 | 8.0 | 16.1 | 0.00 | 0.00 | 0.00 | 86 | 1019.0 |
| 20260506153806 | 13 | 183 | 1.6 | 9.7 | 0.00 | 0.00 | 0.00 | 86 | 1019.3 |
| 20260506153306 | 13 | 139 | 4.8 | 12.9 | 0.00 | 0.00 | 0.00 | 87 | 1019.6 |
| 20260506152806 | 13 | 148 | 3.2 | 4.8 | 0.00 | 0.00 | 0.00 | 87 | 1019.8 |
| 20260506152306 | 13 | 142 | 3.2 | 8.0 | 0.00 | 0.00 | 0.00 | 87 | 1019.8 |
| 20260506151806 | 13 | 172 | 4.8 | 8.0 | 0.00 | 0.00 | 0.00 | 86 | 1019.9 |
| 20260506151306 | 13 | 187 | 1.6 | 4.8 | 0.00 | 0.00 | 0.00 | 87 | 1020.0 |
| 20260506150806 | 13 | 187 | 3.2 | 4.8 | 0.00 | 0.00 | 0.00 | 87 | 1019.9 |
| 20260506150306 | 13 | 191 | 1.6 | 4.8 | 0.00 | 0.00 | 0.00 | 87 | 1019.9 |
| 20260506145806 | 13 | 191 | 3.2 | 4.8 | 0.00 | 0.00 | 0.00 | 86 | 1019.8 |
| 20260506145306 | 13 | 231 | 3.2 | 4.8 | 0.00 | 0.00 | 0.00 | 87 | 1019.8 |
| 20260506144806 | 13 | 226 | 1.6 | 8.0 | 0.00 | 0.00 | 0.00 | 87 | 1019.8 |
| 20260506144306 | 13 | 226 | 3.2 | 8.0 | 0.00 | 0.00 | 0.00 | 86 | 1019.8 |
| 20260506143806 | 13 | 242 | 3.2 | 4.8 | 0.00 | 0.00 | 0.00 | 86 | 1019.7 |
| 20260506143306 | 13 | 138 | 0.0 | 3.2 | 0.00 | 0.00 | 0.00 | 87 | 1019.5 |
| 20260506142806 | 13 | 138 | 0.0 | 4.8 | 0.00 | 0.00 | 0.00 | 87 | 1019.4 |
| 20260506141306 | 13 | 148 | 4.8 | 8.0 | 0.00 | 0.00 | 0.00 | 87 | 1019.0 |
| 20260506140806 | 13 | 180 | 1.6 | 4.8 | 0.00 | 0.00 | 0.00 | 87 | 1019.0 |
| 20260506140306 | 13 | 195 | 1.6 | 8.0 | 0.00 | 0.00 | 0.00 | 87 | 1018.9 |
| 20260506135806 | 13 | 147 | 3.2 | 4.8 | 0.00 | 0.00 | 0.00 | 87 | 1019.0 |
| 20260506135306 | 13 | 148 | 3.2 | 8.0 | 0.00 | 0.00 | 0.00 | 87 | 1019.0 |
| 20260506134806 | 13 | 145 | 3.2 | 8.0 | 0.00 | 0.00 | 0.00 | 87 | 1019.0 |
| 20260506133305 | 13 | 146 | 1.6 | 4.8 | 0.00 | 0.00 | 0.00 | 87 | 1018.8 |
| 20260506132805 | 13 | 147 | 3.2 | 8.0 | 0.00 | 0.00 | 0.00 | 87 | 1018.7 |
| 20260506132307 | 13 | 140 | 3.2 | 8.0 | 0.00 | 0.00 | 0.00 | 87 | 1018.7 |
| 20260506131306 | 13 | 148 | 4.8 | 11.3 | 0.00 | 0.00 | 0.00 | 87 | 1018.5 |
| 20260506130806 | 13 | 151 | 4.8 | 11.3 | 0.00 | 0.00 | 0.00 | 87 | 1018.5 |
| 20260506130306 | 13 | 135 | 3.2 | 4.8 | 0.00 | 0.00 | 0.00 | 86 | 1018.6 |
| 20260506125806 | 13 | 132 | 1.6 | 3.2 | 0.00 | 0.00 | 0.00 | 86 | 1018.6 |
| 20260506125306 | 13 | 132 | 3.2 | 4.8 | 0.00 | 0.00 | 0.00 | 86 | 1018.6 |
| 20260506124806 | 13 | 144 | 3.2 | 4.8 | 0.00 | 0.00 | 0.00 | 86 | 1018.4 |
| 20260506123806 | 13 | 134 | 1.6 | 4.8 | 0.00 | 0.00 | 0.00 | 85 | 1018.4 |
| 20260506123306 | 13 | 129 | 3.2 | 4.8 | 0.00 | 0.00 | 0.00 | 84 | 1018.4 |
| 20260506122806 | 14 | 118 | 1.6 | 3.2 | 0.00 | 0.00 | 0.00 | 84 | 1018.4 |
| 20260506122306 | 14 | 119 | 1.6 | 3.2 | 0.00 | 0.00 | 0.00 | 84 | 1018.5 |
| 20260506121806 | 14 | 119 | 0.0 | 3.2 | 0.00 | 0.00 | 0.00 | 84 | 1018.6 |
| 20260506121305 | 14 | 119 | 1.6 | 4.8 | 0.00 | 0.00 | 0.00 | 84 | 1018.5 |
| 20260506120806 | 14 | 119 | 1.6 | 4.8 | 0.00 | 0.00 | 0.00 | 84 | 1018.4 |
| 20260506120305 | 14 | 36 | 1.6 | 3.2 | 0.00 | 0.00 | 0.00 | 84 | 1018.4 |
| 20260506115806 | 14 | 36 | 1.6 | 3.2 | 0.00 | 0.00 | 0.00 | 84 | 1018.4 |
| 20260506115307 | 14 | 36 | 0.0 | 1.6 | 0.00 | 0.00 | 0.00 | 84 | 1018.3 |
| 20260506114806 | 14 | 36 | 0.0 | 3.2 | 0.00 | 0.00 | 0.00 | 84 | 1018.2 |
| 20260506114306 | 14 | 34 | 1.6 | 1.6 | 0.00 | 0.00 | 0.00 | 84 | 1018.2 |
| 20260506113805 | 14 | 34 | 0.0 | 1.6 | 0.00 | 0.00 | 0.00 | 84 | 1018.0 |
| 20260506113305 | 14 | 34 | 0.0 | 1.6 | 0.00 | 0.00 | 0.00 | 84 | 1018.0 |
| 20260506112806 | 14 | 34 | 0.0 | 0.0 | 0.00 | 0.00 | 0.00 | 84 | 1018.0 |
| 20260506112306 | 14 | 34 | 0.0 | 0.0 | 0.00 | 0.00 | 0.00 | 84 | 1018.0 |
| 20260506111805 | 14 | 34 | 0.0 | 0.0 | 0.00 | 0.00 | 0.00 | 84 | 1017.9 |
| 20260506111305 | 14 | 34 | 0.0 | 1.6 | 0.00 | 0.00 | 0.00 | 84 | 1017.8 |
| 20260506110806 | 14 | 34 | 1.6 | 3.2 | 0.00 | 0.00 | 0.00 | 84 | 1017.8 |
| 20260506110306 | 14 | 100 | 1.6 | 3.2 | 0.00 | 0.00 | 0.00 | 84 | 1017.7 |
| 20260506105805 | 14 | 98 | 0.0 | 3.2 | 0.00 | 0.00 | 0.00 | 84 | 1017.6 |
| 20260506105305 | 14 | 98 | 0.0 | 3.2 | 0.00 | 0.00 | 0.00 | 84 | 1017.6 |
| 20260506104305 | 14 | 98 | 0.0 | 3.2 | 0.00 | 0.00 | 0.00 | 84 | 1017.4 |
| 20260506103306 | 14 | 98 | 0.0 | 1.6 | 0.00 | 0.00 | 0.00 | 84 | 1017.3 |
| 20260506102805 | 14 | 98 | 0.0 | 3.2 | 0.00 | 0.00 | 0.00 | 84 | 1017.3 |
| 20260506102306 | 14 | 99 | 0.0 | 3.2 | 0.00 | 0.00 | 0.00 | 84 | 1017.1 |
| 20260506101805 | 14 | 74 | 1.6 | 3.2 | 0.00 | 0.00 | 0.00 | 84 | 1017.1 |
| 20260506101305 | 14 | 74 | 1.6 | 3.2 | 0.00 | 0.00 | 0.00 | 84 | 1017.1 |
| 20260506100805 | 14 | 74 | 1.6 | 3.2 | 0.00 | 0.00 | 0.00 | 84 | 1017.1 |
| 20260506100305 | 14 | 74 | 0.0 | 3.2 | 0.00 | 0.00 | 0.00 | 84 | 1017.0 |